createdAt,value
2022-08-25T00:00:21.526Z,23.54
2022-08-25T00:02:55.169Z,23.48
2022-08-25T00:05:29.417Z,23.47
2022-08-25T00:08:01.542Z,23.36
2022-08-25T00:10:31.116Z,23.30
2022-08-25T00:12:59.943Z,23.25
2022-08-25T00:15:32.179Z,23.23
2022-08-25T00:18:01.614Z,23.21
2022-08-25T00:20:31.448Z,23.19
2022-08-25T00:22:59.842Z,23.14
2022-08-25T00:25:28.319Z,23.11
2022-08-25T00:27:57.260Z,23.08
2022-08-25T00:30:25.698Z,23.05
2022-08-25T00:32:55.258Z,23.00
2022-08-25T00:35:27.223Z,22.97
2022-08-25T00:37:57.177Z,22.93
2022-08-25T00:40:28.329Z,22.91
2022-08-25T00:42:57.277Z,22.87
2022-08-25T00:45:26.415Z,22.83
2022-08-25T00:47:59.769Z,22.80
2022-08-25T00:50:29.925Z,22.74
2022-08-25T00:53:02.499Z,22.73
2022-08-25T00:55:36.141Z,22.69
2022-08-25T00:58:13.994Z,22.66
2022-08-25T01:00:46.840Z,22.64
2022-08-25T01:03:15.267Z,22.59
2022-08-25T01:05:46.509Z,22.56
2022-08-25T01:08:21.142Z,22.52
2022-08-25T01:10:51.452Z,22.51
2022-08-25T01:13:25.697Z,22.43
2022-08-25T01:15:57.205Z,22.38
2022-08-25T01:18:25.897Z,22.36
2022-08-25T01:20:56.720Z,22.31
2022-08-25T01:23:26.313Z,22.25
2022-08-25T01:26:03.683Z,22.19
2022-08-25T01:28:32.487Z,22.12
2022-08-25T01:31:00.992Z,22.07
2022-08-25T01:33:29.612Z,22.02
2022-08-25T01:35:59.328Z,21.94
2022-08-25T01:38:27.810Z,21.89
2022-08-25T01:40:56.115Z,21.84
2022-08-25T01:43:38.056Z,21.81
2022-08-25T01:46:06.643Z,21.75
2022-08-25T01:48:35.669Z,21.71
2022-08-25T01:51:05.705Z,21.66
2022-08-25T01:53:34.567Z,21.63
2022-08-25T01:56:11.399Z,21.66
2022-08-25T01:58:45.951Z,21.62
2022-08-25T02:01:17.779Z,21.55
2022-08-25T02:03:49.867Z,21.49
2022-08-25T02:06:29.808Z,21.42
2022-08-25T02:09:02.100Z,21.38
2022-08-25T02:11:30.733Z,21.34
2022-08-25T02:13:59.944Z,21.33
2022-08-25T02:16:32.457Z,21.27
2022-08-25T02:19:01.635Z,21.22
2022-08-25T02:21:32.479Z,21.18
2022-08-25T02:24:01.278Z,21.13
2022-08-25T02:26:30.490Z,21.10
2022-08-25T02:28:58.810Z,21.08
2022-08-25T02:31:27.693Z,21.05
2022-08-25T02:33:57.090Z,21.00
2022-08-25T02:36:25.744Z,20.97
2022-08-25T02:38:55.438Z,20.95
2022-08-25T02:41:31.510Z,20.92
2022-08-25T02:44:00.845Z,20.89
2022-08-25T02:46:31.077Z,20.87
2022-08-25T02:48:59.723Z,20.84
2022-08-25T02:51:30.140Z,20.81
2022-08-25T02:54:03.059Z,20.81
2022-08-25T02:56:32.855Z,20.75
2022-08-25T02:59:01.891Z,20.71
2022-08-25T03:01:32.292Z,20.68
2022-08-25T03:04:02.728Z,20.64
2022-08-25T03:06:31.833Z,20.64
2022-08-25T03:09:01.702Z,20.65
2022-08-25T03:11:30.227Z,20.62
2022-08-25T03:13:58.767Z,20.58
2022-08-25T03:16:28.081Z,20.54
2022-08-25T03:18:57.926Z,20.48
2022-08-25T03:21:27.071Z,20.44
2022-08-25T03:23:56.510Z,20.39
2022-08-25T03:26:43.700Z,20.35
2022-08-25T03:29:13.770Z,20.32
2022-08-25T03:31:44.702Z,20.27
2022-08-25T03:34:13.368Z,20.24
2022-08-25T03:36:41.994Z,20.23
2022-08-25T03:39:10.652Z,20.22
2022-08-25T03:41:41.232Z,20.18
2022-08-25T03:44:10.583Z,20.19
2022-08-25T03:46:43.167Z,20.18
2022-08-25T03:49:16.169Z,20.17
2022-08-25T03:51:48.379Z,20.15
2022-08-25T03:54:18.440Z,20.14
2022-08-25T03:56:48.132Z,20.14
2022-08-25T03:59:16.774Z,20.13
2022-08-25T04:01:50.271Z,20.12
2022-08-25T04:04:21.138Z,20.13
2022-08-25T04:06:49.467Z,20.10
2022-08-25T04:09:17.757Z,20.10
2022-08-25T04:11:47.451Z,20.09
2022-08-25T04:14:21.058Z,20.03
2022-08-25T04:16:49.426Z,19.98
2022-08-25T04:19:17.808Z,19.94
2022-08-25T04:21:46.194Z,19.88
2022-08-25T04:24:15.438Z,19.85
2022-08-25T04:26:49.708Z,19.82
2022-08-25T04:29:23.547Z,19.81
2022-08-25T04:31:53.495Z,19.77
2022-08-25T04:34:29.966Z,19.78
2022-08-25T04:37:01.765Z,19.78
2022-08-25T04:39:30.923Z,19.77
2022-08-25T04:42:01.200Z,19.76
2022-08-25T04:44:30.572Z,19.74
2022-08-25T04:46:59.435Z,19.71
2022-08-25T04:49:28.360Z,19.68
2022-08-25T04:51:57.579Z,19.67
2022-08-25T04:54:26.083Z,19.66
2022-08-25T04:56:58.394Z,19.63
2022-08-25T04:59:29.549Z,19.63
2022-08-25T05:02:02.258Z,19.66
2022-08-25T05:04:32.100Z,19.61
2022-08-25T05:07:01.147Z,19.61
2022-08-25T05:09:32.266Z,19.57
2022-08-25T05:12:02.264Z,19.56
2022-08-25T05:14:33.159Z,19.53
2022-08-25T05:17:02.117Z,19.51
2022-08-25T05:19:30.519Z,19.51
2022-08-25T05:21:58.850Z,19.53
2022-08-25T05:24:27.899Z,19.53
2022-08-25T05:26:56.548Z,19.56
2022-08-25T05:29:25.239Z,19.59
2022-08-25T05:31:55.191Z,19.57
2022-08-25T05:34:24.915Z,19.58
2022-08-25T05:36:53.295Z,19.57
2022-08-25T05:39:21.577Z,19.54
2022-08-25T05:41:49.989Z,19.51
2022-08-25T05:44:21.145Z,19.53
2022-08-25T05:46:51.129Z,19.54
2022-08-25T05:49:21.208Z,19.56
2022-08-25T05:51:49.734Z,19.56
2022-08-25T05:54:18.208Z,19.54
2022-08-25T05:56:46.690Z,19.54
2022-08-25T05:59:15.343Z,19.58
2022-08-25T06:02:01.608Z,19.57
2022-08-25T06:04:31.340Z,19.57
2022-08-25T06:06:59.672Z,19.58
2022-08-25T06:09:28.172Z,19.60
2022-08-25T06:11:56.526Z,19.60
2022-08-25T06:14:25.522Z,19.62
2022-08-25T06:16:54.131Z,19.61
2022-08-25T06:19:23.249Z,19.63
2022-08-25T06:21:56.608Z,19.65
2022-08-25T06:24:26.430Z,19.64
2022-08-25T06:26:56.086Z,19.67
2022-08-25T06:29:24.734Z,19.70
2022-08-25T06:31:53.537Z,19.71
2022-08-25T06:34:23.886Z,19.74
2022-08-25T06:36:53.277Z,19.77
2022-08-25T06:39:24.012Z,19.82
2022-08-25T06:41:53.843Z,19.85
2022-08-25T06:44:22.839Z,19.91
2022-08-25T06:46:51.791Z,19.94
2022-08-25T06:49:20.283Z,19.98
2022-08-25T06:51:49.536Z,20.02
2022-08-25T06:54:17.962Z,20.08
2022-08-25T06:56:49.607Z,20.10
2022-08-25T06:59:19.000Z,20.13
2022-08-25T07:01:49.679Z,20.14
2022-08-25T07:04:18.707Z,20.17
2022-08-25T07:06:47.192Z,20.20
2022-08-25T07:09:16.297Z,20.22
2022-08-25T07:11:47.175Z,20.26
2022-08-25T07:14:18.329Z,20.31
2022-08-25T07:16:50.437Z,20.35
2022-08-25T07:19:21.408Z,20.40
2022-08-25T07:21:54.241Z,20.44
2022-08-25T07:24:23.876Z,20.47
2022-08-25T07:26:54.209Z,20.56
2022-08-25T07:32:13.000Z,20.62
2022-08-25T07:34:59.272Z,20.64
2022-08-25T07:37:47.835Z,20.67
2022-08-25T07:40:19.854Z,20.80
2022-08-25T07:42:49.990Z,20.88
2022-08-25T07:45:20.761Z,21.00
2022-08-25T07:47:52.077Z,21.01
2022-08-25T07:50:21.797Z,21.09
2022-08-25T07:52:55.271Z,21.15
2022-08-25T07:55:24.637Z,21.14
2022-08-25T07:58:10.991Z,21.20
2022-08-25T08:00:42.359Z,21.25
2022-08-25T08:03:19.906Z,21.30
2022-08-25T08:05:59.895Z,21.35
2022-08-25T08:08:28.788Z,21.40
2022-08-25T08:11:05.398Z,21.42
2022-08-25T08:13:40.773Z,21.45
2022-08-25T08:16:10.874Z,21.51
2022-08-25T08:18:42.474Z,21.57
2022-08-25T08:21:14.184Z,21.67
2022-08-25T08:23:49.288Z,21.76
2022-08-25T08:26:18.491Z,21.83
2022-08-25T08:28:51.921Z,21.87
2022-08-25T08:31:21.645Z,21.91
2022-08-25T08:33:52.155Z,21.96
2022-08-25T08:36:22.722Z,21.97
2022-08-25T08:38:54.708Z,22.02
2022-08-25T08:42:18.495Z,22.07
2022-08-25T08:45:18.200Z,22.14
2022-08-25T08:48:02.878Z,22.14
2022-08-25T08:50:44.539Z,22.23
2022-08-25T08:53:19.673Z,22.27
2022-08-25T08:55:54.523Z,22.29
2022-08-25T08:58:28.061Z,22.33
2022-08-25T09:01:01.812Z,22.36
2022-08-25T09:03:36.051Z,22.39
2022-08-25T09:06:13.691Z,22.45
2022-08-25T09:08:45.021Z,22.58
2022-08-25T09:11:24.841Z,22.70
2022-08-25T09:14:11.065Z,22.68
2022-08-25T09:16:58.289Z,22.69
2022-08-25T09:19:47.177Z,22.73
2022-08-25T09:25:18.782Z,22.89
2022-08-25T09:28:02.991Z,22.90
2022-08-25T09:30:42.031Z,22.93
2022-08-25T09:33:20.989Z,23.02
2022-08-25T09:35:53.682Z,23.09
2022-08-25T09:38:22.824Z,23.14
2022-08-25T09:40:55.615Z,23.17
2022-08-25T09:43:32.065Z,23.21
2022-08-25T09:46:03.855Z,23.30
2022-08-25T09:48:40.868Z,23.39
2022-08-25T09:51:21.242Z,23.38
2022-08-25T09:53:56.601Z,23.47
2022-08-25T09:56:27.864Z,23.48
2022-08-25T09:59:03.120Z,23.49
2022-08-25T10:01:34.667Z,23.50
2022-08-25T10:04:10.772Z,23.55
2022-08-25T10:06:49.106Z,23.72
2022-08-25T10:09:30.401Z,23.76
2022-08-25T10:12:04.824Z,23.78
2022-08-25T10:14:38.803Z,23.85
2022-08-25T10:17:24.650Z,23.86
2022-08-25T10:20:17.673Z,23.93
2022-08-25T10:22:48.323Z,23.98
2022-08-25T10:25:26.521Z,23.99
2022-08-25T10:28:08.265Z,24.03
2022-08-25T10:30:56.252Z,24.09
2022-08-25T10:33:36.331Z,24.14
2022-08-25T10:36:15.398Z,24.22
2022-08-25T10:38:55.654Z,24.24
2022-08-25T10:41:49.369Z,24.27
2022-08-25T10:44:59.075Z,24.31
2022-08-25T10:47:55.434Z,24.43
2022-08-25T10:50:30.547Z,24.50
2022-08-25T10:53:16.949Z,24.59
2022-08-25T10:55:57.576Z,24.71
2022-08-25T10:59:04.594Z,24.76
2022-08-25T11:01:48.838Z,24.85
2022-08-25T11:04:29.853Z,24.88
2022-08-25T11:07:05.871Z,24.89
2022-08-25T11:09:41.726Z,24.86
2022-08-25T11:12:15.360Z,24.87
2022-08-25T11:14:51.243Z,24.92
2022-08-25T11:17:26.037Z,24.96
2022-08-25T11:19:58.968Z,25.02
2022-08-25T11:22:33.435Z,25.10
2022-08-25T11:25:13.025Z,25.23
2022-08-25T11:27:53.524Z,25.33
2022-08-25T11:30:23.053Z,25.42
2022-08-25T11:32:56.757Z,25.46
2022-08-25T11:35:32.375Z,25.54
2022-08-25T11:38:26.425Z,25.69
2022-08-25T11:41:11.135Z,25.74
2022-08-25T11:43:51.139Z,25.76
2022-08-25T11:46:39.316Z,25.80
2022-08-25T11:49:32.546Z,25.82
2022-08-25T11:52:02.958Z,25.98
2022-08-25T11:54:38.775Z,25.96
2022-08-25T11:57:22.786Z,25.94
2022-08-25T12:00:11.317Z,26.04
2022-08-25T12:02:43.660Z,26.25
2022-08-25T12:05:47.653Z,26.26
2022-08-25T12:08:33.712Z,26.34
2022-08-25T12:11:10.953Z,26.64
2022-08-25T12:13:48.411Z,26.93
2022-08-25T12:16:43.535Z,27.12
2022-08-25T12:19:32.908Z,27.11
2022-08-25T12:22:56.697Z,27.05
2022-08-25T12:25:50.299Z,27.20
2022-08-25T12:28:58.869Z,27.53
2022-08-25T12:32:04.645Z,27.87
2022-08-25T12:34:54.712Z,27.94
2022-08-25T12:37:25.583Z,28.10
2022-08-25T12:40:01.446Z,28.29
2022-08-25T12:42:33.535Z,28.36
2022-08-25T12:45:35.236Z,28.56
2022-08-25T12:48:56.823Z,28.79
2022-08-25T12:51:28.419Z,29.00
2022-08-25T12:54:12.104Z,29.22
2022-08-25T12:56:49.263Z,29.27
2022-08-25T12:59:21.417Z,29.19
2022-08-25T13:02:11.900Z,29.41
2022-08-25T13:05:04.708Z,29.60
2022-08-25T13:08:15.109Z,29.70
2022-08-25T13:10:50.610Z,29.58
2022-08-25T13:13:36.880Z,29.77
2022-08-25T13:16:10.799Z,29.96
2022-08-25T13:18:41.548Z,30.16
2022-08-25T13:21:18.141Z,30.43
2022-08-25T13:23:49.782Z,30.51
2022-08-25T13:26:25.597Z,30.63
2022-08-25T13:28:59.443Z,30.55
2022-08-25T13:31:29.874Z,30.54
2022-08-25T13:34:03.266Z,30.55
2022-08-25T13:37:01.340Z,30.59
2022-08-25T13:39:55.096Z,30.60
2022-08-25T13:42:27.415Z,30.78
2022-08-25T13:44:57.639Z,30.77
2022-08-25T13:47:43.842Z,30.77
2022-08-25T13:50:23.155Z,30.66
2022-08-25T13:52:58.225Z,30.77
2022-08-25T13:55:38.222Z,31.06
2022-08-25T13:58:24.195Z,31.30
2022-08-25T14:01:23.114Z,31.44
2022-08-25T14:04:21.892Z,31.28
2022-08-25T14:07:14.843Z,31.18
2022-08-25T14:09:52.512Z,31.05
2022-08-25T14:12:37.821Z,30.96
2022-08-25T14:15:13.876Z,30.90
2022-08-25T14:20:25.586Z,30.86
2022-08-25T14:23:00.215Z,30.80
2022-08-25T14:25:31.845Z,30.80
2022-08-25T14:28:07.330Z,30.82
2022-08-25T14:30:41.015Z,30.90
2022-08-25T14:33:13.310Z,30.93
2022-08-25T14:35:44.734Z,30.92
2022-08-25T14:38:15.515Z,30.83
2022-08-25T14:40:45.742Z,30.80
2022-08-25T14:43:14.849Z,30.75
2022-08-25T14:45:46.438Z,30.71
2022-08-25T14:48:26.119Z,30.67
2022-08-25T14:50:57.663Z,30.67
2022-08-25T14:53:28.717Z,30.67
2022-08-25T14:55:59.106Z,30.66
2022-08-25T14:58:33.888Z,30.63
2022-08-25T15:01:06.133Z,30.65
2022-08-25T15:03:42.823Z,30.76
2022-08-25T15:06:18.677Z,31.02
2022-08-25T15:09:05.872Z,31.41
2022-08-25T15:11:35.257Z,31.78
2022-08-25T15:14:03.948Z,31.82
2022-08-25T15:16:37.866Z,31.95
2022-08-25T15:19:08.231Z,32.26
2022-08-25T15:21:37.289Z,32.47
2022-08-25T15:24:08.734Z,32.43
2022-08-25T15:26:44.495Z,32.52
2022-08-25T15:29:12.954Z,32.37
2022-08-25T15:31:41.519Z,32.39
2022-08-25T15:34:11.822Z,32.58
2022-08-25T15:36:41.550Z,32.87
2022-08-25T15:39:12.591Z,33.17
2022-08-25T15:41:42.817Z,33.46
2022-08-25T15:44:11.441Z,33.72
2022-08-25T15:46:46.961Z,33.83
2022-08-25T15:49:23.087Z,34.00
2022-08-25T15:51:54.349Z,34.07
2022-08-25T15:54:26.761Z,34.13
2022-08-25T15:56:56.597Z,34.32
2022-08-25T15:59:26.017Z,34.57
2022-08-25T16:01:56.715Z,34.75
2022-08-25T16:04:28.791Z,34.95
2022-08-25T16:06:57.172Z,35.08
2022-08-25T16:09:28.624Z,35.16
2022-08-25T16:12:03.936Z,35.23
2022-08-25T16:14:32.547Z,35.34
2022-08-25T16:17:01.107Z,35.46
2022-08-25T16:19:30.393Z,35.55
2022-08-25T16:22:00.140Z,35.64
2022-08-25T16:24:30.004Z,35.71
2022-08-25T16:27:11.771Z,35.75
2022-08-25T16:29:41.924Z,35.85
2022-08-25T16:32:11.592Z,35.87
2022-08-25T16:34:43.211Z,35.89
2022-08-25T16:37:13.467Z,35.99
2022-08-25T16:39:45.569Z,36.02
2022-08-25T16:42:15.207Z,36.03
2022-08-25T16:44:43.590Z,36.05
2022-08-25T16:47:14.269Z,36.06
2022-08-25T16:49:47.138Z,36.10
2022-08-25T16:52:40.575Z,36.06
2022-08-25T16:55:13.583Z,36.03
2022-08-25T16:57:45.299Z,36.00
2022-08-25T17:00:21.798Z,36.02
2022-08-25T17:02:54.211Z,36.04
2022-08-25T17:05:22.896Z,36.00
2022-08-25T17:08:05.700Z,35.96
2022-08-25T17:10:38.416Z,35.92
2022-08-25T17:13:07.862Z,35.84
2022-08-25T17:15:40.613Z,35.74
2022-08-25T17:18:09.162Z,35.59
2022-08-25T17:20:39.889Z,35.48
2022-08-25T17:23:12.774Z,35.33
2022-08-25T17:25:44.181Z,35.15
2022-08-25T17:28:13.561Z,35.09
2022-08-25T17:30:43.325Z,34.91
2022-08-25T17:33:12.290Z,34.80
2022-08-25T17:35:42.777Z,34.65
2022-08-25T17:38:13.025Z,34.53
2022-08-25T17:40:43.248Z,34.39
2022-08-25T17:43:12.676Z,34.27
2022-08-25T17:45:41.951Z,34.14
2022-08-25T17:48:13.880Z,33.98
2022-08-25T17:50:42.616Z,33.84
2022-08-25T17:53:12.278Z,33.69
2022-08-25T17:55:43.541Z,33.58
2022-08-25T17:58:17.062Z,33.45
2022-08-25T18:00:47.030Z,33.34
2022-08-25T18:03:15.324Z,33.25
2022-08-25T18:05:45.014Z,33.14
2022-08-25T18:08:14.617Z,33.03
2022-08-25T18:10:44.679Z,32.92
2022-08-25T18:13:13.639Z,32.81
2022-08-25T18:15:43.877Z,32.70
2022-08-25T18:18:12.740Z,32.58
2022-08-25T18:20:41.696Z,32.50
2022-08-25T18:23:12.569Z,32.38
2022-08-25T18:25:42.972Z,32.28
2022-08-25T18:28:13.104Z,32.14
2022-08-25T18:30:43.114Z,32.01
2022-08-25T18:33:12.101Z,31.87
2022-08-25T18:35:40.508Z,31.76
2022-08-25T18:38:27.732Z,31.67
2022-08-25T18:40:58.242Z,31.55
2022-08-25T18:43:31.910Z,31.45
2022-08-25T18:46:04.680Z,31.37
2022-08-25T18:48:34.431Z,31.29
2022-08-25T18:51:03.040Z,31.24
2022-08-25T18:53:37.461Z,31.16
2022-08-25T18:56:19.184Z,31.09
2022-08-25T18:58:49.508Z,31.03
2022-08-25T19:01:20.543Z,30.93
2022-08-25T19:03:50.613Z,30.85
2022-08-25T19:06:20.754Z,30.78
2022-08-25T19:08:49.602Z,30.72
2022-08-25T19:11:22.314Z,30.61
2022-08-25T19:13:52.640Z,30.53
2022-08-25T19:16:34.642Z,30.44
2022-08-25T19:19:06.397Z,30.35
2022-08-25T19:21:38.610Z,30.27
2022-08-25T19:24:08.153Z,30.18
2022-08-25T19:26:38.166Z,30.09
2022-08-25T19:29:14.960Z,30.03
2022-08-25T19:31:46.614Z,29.98
2022-08-25T19:34:21.459Z,29.89
2022-08-25T19:36:50.781Z,29.82
2022-08-25T19:39:19.975Z,29.75
2022-08-25T19:41:49.016Z,29.66
2022-08-25T19:44:19.273Z,29.60
2022-08-25T19:46:47.851Z,29.55
2022-08-25T19:49:26.160Z,29.44
2022-08-25T19:51:57.139Z,29.28
2022-08-25T19:54:30.232Z,29.15
2022-08-25T19:56:59.529Z,29.06
2022-08-25T19:59:40.435Z,28.99
2022-08-25T20:02:16.125Z,28.94
2022-08-25T20:04:49.593Z,28.88
2022-08-25T20:07:19.208Z,28.82
2022-08-25T20:09:48.190Z,28.80
2022-08-25T20:12:17.346Z,28.74
2022-08-25T20:14:48.192Z,28.64
2022-08-25T20:17:23.868Z,28.57
2022-08-25T20:19:55.916Z,28.45
2022-08-25T20:22:26.828Z,28.39
2022-08-25T20:24:57.893Z,28.31
2022-08-25T20:27:34.519Z,28.23
2022-08-25T20:30:08.944Z,28.19
2022-08-25T20:32:37.801Z,28.16
2022-08-25T20:35:09.924Z,28.08
2022-08-25T20:37:42.076Z,28.01
2022-08-25T20:40:12.403Z,27.93
2022-08-25T20:42:41.437Z,27.87
2022-08-25T20:45:17.800Z,27.81
2022-08-25T20:47:46.212Z,27.77
2022-08-25T20:50:43.023Z,27.69
2022-08-25T20:53:13.714Z,27.65
2022-08-25T20:55:43.740Z,27.62
2022-08-25T20:58:12.691Z,27.53
2022-08-25T21:00:44.690Z,27.46
2022-08-25T21:03:13.618Z,27.42
2022-08-25T21:05:43.886Z,27.36
2022-08-25T21:08:12.931Z,27.31
2022-08-25T21:10:41.781Z,27.24
2022-08-25T21:13:10.354Z,27.17
2022-08-25T21:15:40.450Z,27.11
2022-08-25T21:18:10.358Z,27.04
2022-08-25T21:20:40.294Z,26.96
2022-08-25T21:23:08.829Z,26.93
2022-08-25T21:25:42.259Z,26.89
2022-08-25T21:28:10.788Z,26.82
2022-08-25T21:30:44.692Z,26.72
2022-08-25T21:33:17.404Z,26.69
2022-08-25T21:35:47.183Z,26.63
2022-08-25T21:38:16.169Z,26.53
2022-08-25T21:40:45.069Z,26.46
2022-08-25T21:43:13.689Z,26.39
2022-08-25T21:45:46.764Z,26.21
2022-08-25T21:48:17.624Z,26.04
2022-08-25T21:50:46.377Z,25.84
2022-08-25T21:53:14.846Z,25.70
2022-08-25T21:55:45.205Z,25.62
2022-08-25T21:58:13.702Z,25.60
2022-08-25T22:00:44.583Z,25.59
2022-08-25T22:03:13.206Z,25.62
2022-08-25T22:05:43.226Z,25.61
2022-08-25T22:08:14.349Z,25.60
2022-08-25T22:10:45.543Z,25.64
2022-08-25T22:13:14.199Z,25.68
2022-08-25T22:15:42.905Z,25.69
2022-08-25T22:18:11.467Z,25.69
2022-08-25T22:20:41.427Z,25.66
2022-08-25T22:23:20.485Z,25.65
2022-08-25T22:25:49.443Z,25.58
2022-08-25T22:28:20.011Z,25.53
2022-08-25T22:30:49.153Z,25.44
2022-08-25T22:33:18.156Z,25.41
2022-08-25T22:35:47.066Z,25.38
2022-08-25T22:38:17.205Z,25.30
2022-08-25T22:40:46.453Z,25.27
2022-08-25T22:43:15.053Z,25.23
2022-08-25T22:45:43.768Z,25.21
2022-08-25T22:48:12.368Z,25.18
2022-08-25T22:50:40.892Z,25.09
2022-08-25T22:53:09.523Z,25.03
2022-08-25T22:55:44.654Z,24.95
2022-08-25T22:58:15.964Z,24.87
2022-08-25T23:00:44.513Z,24.87
2022-08-25T23:03:13.148Z,24.84
2022-08-25T23:05:41.757Z,24.84
2022-08-25T23:08:10.251Z,24.78
2022-08-25T23:10:38.721Z,24.74
2022-08-25T23:13:08.892Z,24.70
2022-08-25T23:15:37.971Z,24.65
2022-08-25T23:18:07.763Z,24.64
2022-08-25T23:20:53.656Z,24.59
2022-08-25T23:23:22.718Z,24.56
2022-08-25T23:25:51.384Z,24.52
2022-08-25T23:28:22.084Z,24.50
2022-08-25T23:30:59.372Z,24.47
2022-08-25T23:33:28.578Z,24.42
2022-08-25T23:36:01.150Z,24.38
2022-08-25T23:38:29.745Z,24.34
2022-08-25T23:40:59.528Z,24.27
2022-08-25T23:43:29.640Z,24.19
2022-08-25T23:45:58.787Z,24.12
2022-08-25T23:48:27.736Z,24.08
2022-08-25T23:50:57.572Z,24.05
2022-08-25T23:53:26.506Z,23.98
2022-08-25T23:55:56.137Z,23.93
2022-08-25T23:58:26.027Z,23.87
